Time;durP1;ratioP1;P1;durP2;ratioP2;P2;SDS_P1;SDS_P2;PMS_P1;PMS_P2;Temp;Humidity;BMP_temperature;BMP_pressure;BME280_temperature;BME280_humidity;BME280_pressure;Samples;Min_cycle;Max_cycle;Signal;HPM_P1;HPM_P2
2021/03/04 00:01:33;;;;;;;;;;;20.40;41.30;;;;;;500306;237;2176;-72
2021/03/04 00:03:35;;;;;;;;;;;20.40;41.30;;;;;;500364;237;965;-72
2021/03/04 00:05:36;;;;;;;;;;;20.40;41.10;;;;;;500293;237;1055;-73
2021/03/04 00:07:37;;;;;;;;;;;20.40;41.20;;;;;;500354;237;1050;-72
2021/03/04 00:09:38;;;;;;;;;;;20.30;41.30;;;;;;500355;237;993;-72
2021/03/04 00:11:40;;;;;;;;;;;20.40;41.10;;;;;;500322;237;981;-72
2021/03/04 00:13:41;;;;;;;;;;;20.40;41.10;;;;;;500371;237;946;-72
2021/03/04 00:15:42;;;;;;;;;;;20.40;41.20;;;;;;500301;237;1374;-73
2021/03/04 00:17:43;;;;;;;;;;;20.40;41.10;;;;;;500498;237;1052;-72
2021/03/04 00:19:45;;;;;;;;;;;20.40;40.80;;;;;;500316;237;1150;-72
2021/03/04 00:21:46;;;;;;;;;;;20.50;41.10;;;;;;500347;237;2180;-72
2021/03/04 00:23:47;;;;;;;;;;;20.40;41.00;;;;;;500381;237;1059;-72
2021/03/04 00:25:49;;;;;;;;;;;20.40;41.00;;;;;;500358;237;1283;-72
2021/03/04 00:27:50;;;;;;;;;;;20.40;41.10;;;;;;500277;237;1161;-72
2021/03/04 00:29:51;;;;;;;;;;;20.50;40.90;;;;;;500292;237;1040;-72
2021/03/04 00:31:52;;;;;;;;;;;20.50;40.90;;;;;;500282;237;1177;-72
2021/03/04 00:33:54;;;;;;;;;;;20.40;40.90;;;;;;500402;237;996;-73
2021/03/04 00:35:55;;;;;;;;;;;20.40;41.00;;;;;;500382;237;1057;-72
2021/03/04 00:37:56;;;;;;;;;;;20.40;40.90;;;;;;500430;237;953;-73
2021/03/04 00:39:58;;;;;;;;;;;20.40;40.90;;;;;;500435;237;975;-73
2021/03/04 00:41:59;;;;;;;;;;;20.50;40.90;;;;;;500393;237;2125;-72
2021/03/04 00:44:00;;;;;;;;;;;20.40;40.90;;;;;;500378;237;1044;-72
2021/03/04 00:46:02;;;;;;;;;;;20.40;41.00;;;;;;500277;237;1228;-72
2021/03/04 00:48:03;;;;;;;;;;;20.40;41.10;;;;;;500483;237;1181;-74
2021/03/04 00:50:04;;;;;;;;;;;20.50;40.90;;;;;;500387;237;1126;-72
2021/03/04 00:52:06;;;;;;;;;;;20.40;41.00;;;;;;500461;237;1190;-72
2021/03/04 00:54:07;;;;;;;;;;;20.40;41.00;;;;;;500416;237;969;-73
2021/03/04 00:56:08;;;;;;;;;;;20.40;40.60;;;;;;500327;237;1199;-72
2021/03/04 00:58:10;;;;;;;;;;;20.30;41.10;;;;;;500374;237;1115;-72
2021/03/04 01:00:11;;;;;;;;;;;20.40;41.00;;;;;;500344;237;969;-72
2021/03/04 01:02:12;;;;;;;;;;;20.40;41.00;;;;;;500353;237;2191;-72
2021/03/04 01:04:14;;;;;;;;;;;20.30;41.00;;;;;;500402;237;1060;-72
2021/03/04 01:06:15;;;;;;;;;;;20.30;40.90;;;;;;500389;237;1129;-72
2021/03/04 01:08:16;;;;;;;;;;;20.30;41.00;;;;;;500447;237;1064;-72
2021/03/04 01:10:17;;;;;;;;;;;20.30;41.00;;;;;;500383;237;1056;-72
2021/03/04 01:12:19;;;;;;;;;;;20.30;40.90;;;;;;500520;237;1163;-72
2021/03/04 01:14:20;;;;;;;;;;;20.30;41.10;;;;;;500373;237;955;-72
2021/03/04 01:16:21;;;;;;;;;;;20.30;41.10;;;;;;500397;237;1213;-72
2021/03/04 01:18:23;;;;;;;;;;;20.30;41.10;;;;;;500448;237;943;-72
2021/03/04 01:20:24;;;;;;;;;;;20.40;41.00;;;;;;500382;237;1136;-72
2021/03/04 01:22:25;;;;;;;;;;;20.40;40.80;;;;;;500336;237;2171;-72
2021/03/04 01:24:26;;;;;;;;;;;20.40;41.00;;;;;;500437;237;1068;-72
2021/03/04 01:26:28;;;;;;;;;;;20.50;40.80;;;;;;500329;237;973;-72
2021/03/04 01:28:29;;;;;;;;;;;20.50;40.80;;;;;;500481;237;1046;-72
2021/03/04 01:30:30;;;;;;;;;;;20.50;40.90;;;;;;500369;237;951;-72
2021/03/04 01:32:31;;;;;;;;;;;20.40;40.90;;;;;;500338;237;943;-72
2021/03/04 01:34:33;;;;;;;;;;;20.50;40.80;;;;;;500401;237;963;-73
2021/03/04 01:36:34;;;;;;;;;;;20.50;40.30;;;;;;500501;237;1140;-72
2021/03/04 01:38:35;;;;;;;;;;;20.60;40.50;;;;;;500418;237;929;-72
2021/03/04 01:40:37;;;;;;;;;;;20.60;40.50;;;;;;500394;237;1188;-72
2021/03/04 01:42:38;;;;;;;;;;;20.60;40.50;;;;;;500369;238;2121;-72
2021/03/04 01:44:39;;;;;;;;;;;20.50;40.70;;;;;;500406;237;939;-73
2021/03/04 01:46:40;;;;;;;;;;;20.50;40.80;;;;;;500389;237;1165;-73
2021/03/04 01:48:42;;;;;;;;;;;20.60;40.70;;;;;;500340;237;1058;-72
2021/03/04 01:50:43;;;;;;;;;;;20.50;40.80;;;;;;500309;237;1189;-72
2021/03/04 01:52:44;;;;;;;;;;;20.60;40.30;;;;;;500314;237;1033;-72
2021/03/04 01:54:45;;;;;;;;;;;20.50;40.80;;;;;;500372;237;1086;-72
2021/03/04 01:56:47;;;;;;;;;;;20.60;41.10;;;;;;500405;237;1180;-72
2021/03/04 01:58:48;;;;;;;;;;;20.50;41.00;;;;;;500351;237;956;-72
2021/03/04 02:00:49;;;;;;;;;;;20.50;41.00;;;;;;500354;237;1282;-72
2021/03/04 02:02:51;;;;;;;;;;;20.60;40.90;;;;;;500421;237;2168;-72
2021/03/04 02:04:52;;;;;;;;;;;20.70;40.70;;;;;;500401;237;926;-72
2021/03/04 02:06:53;;;;;;;;;;;20.60;40.80;;;;;;500462;237;1272;-72
2021/03/04 02:08:55;;;;;;;;;;;20.60;40.90;;;;;;500373;237;1125;-72
2021/03/04 02:10:56;;;;;;;;;;;20.70;40.80;;;;;;500361;237;1315;-72
2021/03/04 02:12:57;;;;;;;;;;;20.60;40.90;;;;;;500376;237;953;-72
2021/03/04 02:14:59;;;;;;;;;;;20.60;41.00;;;;;;500345;237;966;-72
2021/03/04 02:17:00;;;;;;;;;;;20.50;40.90;;;;;;500323;237;973;-72
2021/03/04 02:19:01;;;;;;;;;;;20.50;41.20;;;;;;500367;237;1056;-73
2021/03/04 02:21:02;;;;;;;;;;;20.50;41.00;;;;;;500351;234;1323;-72
2021/03/04 02:23:04;;;;;;;;;;;20.50;41.20;;;;;;500364;237;2132;-72
2021/03/04 02:25:05;;;;;;;;;;;20.50;41.10;;;;;;500465;237;963;-73
2021/03/04 02:27:06;;;;;;;;;;;20.50;41.10;;;;;;500373;237;1181;-72
2021/03/04 02:29:08;;;;;;;;;;;20.50;40.80;;;;;;500342;237;1103;-72
2021/03/04 02:31:09;;;;;;;;;;;20.50;40.90;;;;;;500309;237;1152;-72
2021/03/04 02:33:10;;;;;;;;;;;20.50;41.00;;;;;;500378;237;1090;-72
2021/03/04 02:35:11;;;;;;;;;;;20.60;40.90;;;;;;500296;237;957;-72
2021/03/04 02:37:13;;;;;;;;;;;20.70;40.80;;;;;;500268;237;1263;-73
2021/03/04 02:39:14;;;;;;;;;;;20.50;40.90;;;;;;500328;237;990;-72
2021/03/04 02:41:15;;;;;;;;;;;20.60;40.90;;;;;;500329;237;1205;-72
2021/03/04 02:43:17;;;;;;;;;;;20.40;41.10;;;;;;500360;237;2184;-72
2021/03/04 02:45:18;;;;;;;;;;;20.50;41.00;;;;;;500355;237;993;-72
2021/03/04 02:47:19;;;;;;;;;;;20.50;41.00;;;;;;500447;237;1210;-73
2021/03/04 02:49:20;;;;;;;;;;;20.40;41.30;;;;;;500349;237;933;-72
2021/03/04 02:51:22;;;;;;;;;;;20.40;41.10;;;;;;500268;237;1246;-72
2021/03/04 02:53:23;;;;;;;;;;;20.40;41.10;;;;;;500306;237;979;-72
2021/03/04 02:55:24;;;;;;;;;;;20.40;41.10;;;;;;500369;237;957;-72
2021/03/04 02:57:25;;;;;;;;;;;20.40;41.10;;;;;;500352;237;1159;-72
2021/03/04 02:59:27;;;;;;;;;;;20.40;41.00;;;;;;500383;237;963;-72
2021/03/04 03:01:28;;;;;;;;;;;20.50;41.00;;;;;;500356;237;2196;-73
2021/03/04 03:03:29;;;;;;;;;;;20.50;40.90;;;;;;500315;237;959;-72
2021/03/04 03:05:31;;;;;;;;;;;20.60;40.60;;;;;;500399;237;1041;-72
2021/03/04 03:07:32;;;;;;;;;;;20.50;41.10;;;;;;500360;237;1155;-72
2021/03/04 03:09:33;;;;;;;;;;;20.50;41.20;;;;;;500369;237;1034;-72
2021/03/04 03:11:34;;;;;;;;;;;20.50;41.10;;;;;;500241;237;1202;-72
2021/03/04 03:13:36;;;;;;;;;;;20.50;41.10;;;;;;500384;237;1027;-72
2021/03/04 03:15:37;;;;;;;;;;;20.60;40.90;;;;;;500329;237;998;-72
2021/03/04 03:17:38;;;;;;;;;;;20.60;41.00;;;;;;500385;237;1123;-72
2021/03/04 03:19:40;;;;;;;;;;;20.60;41.10;;;;;;500319;237;956;-72
2021/03/04 03:21:41;;;;;;;;;;;20.60;41.10;;;;;;500301;237;2191;-73
2021/03/04 03:23:42;;;;;;;;;;;20.60;41.00;;;;;;500447;237;973;-73
2021/03/04 03:25:43;;;;;;;;;;;20.60;41.10;;;;;;500394;237;939;-73
2021/03/04 03:27:45;;;;;;;;;;;20.70;41.00;;;;;;500257;237;1086;-72
2021/03/04 03:29:46;;;;;;;;;;;20.70;40.90;;;;;;500422;237;947;-73
2021/03/04 03:31:47;;;;;;;;;;;20.70;40.90;;;;;;500312;237;1226;-72
2021/03/04 03:33:49;;;;;;;;;;;20.70;40.80;;;;;;500436;237;973;-72
2021/03/04 03:35:50;;;;;;;;;;;20.80;40.70;;;;;;500483;237;1129;-72
2021/03/04 03:37:51;;;;;;;;;;;20.70;40.70;;;;;;500408;237;1145;-72
2021/03/04 03:39:52;;;;;;;;;;;20.80;40.50;;;;;;500305;237;1013;-72
2021/03/04 03:41:54;;;;;;;;;;;20.80;40.70;;;;;;500187;237;2203;-73
2021/03/04 03:43:55;;;;;;;;;;;20.90;40.70;;;;;;500363;237;1032;-72
2021/03/04 03:45:56;;;;;;;;;;;20.80;40.70;;;;;;500375;237;1232;-72
2021/03/04 03:47:57;;;;;;;;;;;20.80;40.80;;;;;;500469;237;1214;-73
2021/03/04 03:49:59;;;;;;;;;;;20.80;40.80;;;;;;500420;237;1014;-72
2021/03/04 03:52:00;;;;;;;;;;;20.80;40.90;;;;;;500356;237;1286;-73
2021/03/04 03:54:01;;;;;;;;;;;20.90;40.80;;;;;;500341;237;952;-72
2021/03/04 03:56:03;;;;;;;;;;;20.80;40.90;;;;;;500422;237;1046;-72
2021/03/04 03:58:04;;;;;;;;;;;20.80;40.90;;;;;;500478;237;1052;-73
2021/03/04 04:00:05;;;;;;;;;;;20.80;41.00;;;;;;500365;237;925;-72
2021/03/04 04:02:06;;;;;;;;;;;21.00;40.80;;;;;;500389;237;2188;-72
2021/03/04 04:04:08;;;;;;;;;;;20.90;40.70;;;;;;500365;237;995;-73
2021/03/04 04:06:09;;;;;;;;;;;21.00;40.80;;;;;;500277;237;1025;-72
2021/03/04 04:08:10;;;;;;;;;;;21.00;40.70;;;;;;500380;237;1196;-72
2021/03/04 04:10:12;;;;;;;;;;;21.00;40.30;;;;;;500437;237;920;-72
2021/03/04 04:12:13;;;;;;;;;;;21.00;40.70;;;;;;500393;237;1186;-72
2021/03/04 04:14:14;;;;;;;;;;;20.90;40.90;;;;;;500494;237;1022;-73
2021/03/04 04:16:15;;;;;;;;;;;21.00;40.90;;;;;;500366;237;1260;-73
2021/03/04 04:18:17;;;;;;;;;;;20.90;41.00;;;;;;500416;237;1209;-72
2021/03/04 04:20:18;;;;;;;;;;;20.80;41.00;;;;;;500381;237;990;-72
2021/03/04 04:22:19;;;;;;;;;;;20.90;41.10;;;;;;500345;237;2144;-72
2021/03/04 04:24:21;;;;;;;;;;;20.80;41.10;;;;;;500406;237;953;-73
2021/03/04 04:26:22;;;;;;;;;;;20.80;41.10;;;;;;500422;237;1011;-72
2021/03/04 04:28:23;;;;;;;;;;;20.90;41.10;;;;;;500384;237;1024;-72
2021/03/04 04:30:24;;;;;;;;;;;20.90;40.90;;;;;;500344;237;1069;-72
2021/03/04 04:32:26;;;;;;;;;;;20.90;41.10;;;;;;500238;237;1276;-72
2021/03/04 04:34:27;;;;;;;;;;;20.90;41.20;;;;;;500424;237;1054;-73
2021/03/04 04:36:28;;;;;;;;;;;20.90;41.00;;;;;;500350;237;1448;-72
2021/03/04 04:38:30;;;;;;;;;;;20.90;41.00;;;;;;500429;237;1147;-72
2021/03/04 04:40:31;;;;;;;;;;;21.00;41.00;;;;;;500390;237;938;-72
2021/03/04 04:42:32;;;;;;;;;;;21.00;41.00;;;;;;500397;237;2173;-72
2021/03/04 04:44:33;;;;;;;;;;;21.00;40.40;;;;;;500537;237;936;-72
2021/03/04 04:46:35;;;;;;;;;;;21.00;40.90;;;;;;500330;237;1209;-72
2021/03/04 04:48:38;;;;;;;;;;;21.00;41.00;;;;;;500352;237;1080;-73
2021/03/04 04:50:37;;;;;;;;;;;21.00;40.90;;;;;;500335;237;1361;-72
2021/03/04 04:52:38;;;;;;;;;;;21.00;40.90;;;;;;500387;234;1311;-72
2021/03/04 04:54:40;;;;;;;;;;;21.00;40.80;;;;;;500323;237;965;-72
2021/03/04 04:56:41;;;;;;;;;;;21.10;40.60;;;;;;500281;237;1014;-72
2021/03/04 04:58:42;;;;;;;;;;;21.10;40.80;;;;;;500271;237;972;-72
2021/03/04 05:00:44;;;;;;;;;;;21.10;40.70;;;;;;500300;237;1079;-72
2021/03/04 05:02:45;;;;;;;;;;;21.00;40.80;;;;;;500185;237;2228;-72
2021/03/04 05:04:47;;;;;;;;;;;21.00;41.00;;;;;;500298;237;984;-72
2021/03/04 05:06:48;;;;;;;;;;;21.00;40.90;;;;;;500204;237;961;-73
2021/03/04 05:08:49;;;;;;;;;;;20.90;41.10;;;;;;500408;237;1156;-73
2021/03/04 05:10:50;;;;;;;;;;;21.00;41.10;;;;;;500383;237;969;-73
2021/03/04 05:12:52;;;;;;;;;;;20.90;41.10;;;;;;500368;237;947;-73
2021/03/04 05:14:53;;;;;;;;;;;20.90;41.20;;;;;;500431;237;1259;-72
2021/03/04 05:16:54;;;;;;;;;;;20.80;40.80;;;;;;500317;237;1098;-72
2021/03/04 05:18:55;;;;;;;;;;;20.80;41.20;;;;;;500305;237;923;-72
2021/03/04 05:20:57;;;;;;;;;;;20.80;41.30;;;;;;500276;237;1134;-72
2021/03/04 05:22:58;;;;;;;;;;;20.80;41.40;;;;;;500318;237;2124;-72
2021/03/04 05:24:59;;;;;;;;;;;20.80;41.30;;;;;;500427;237;1050;-72
2021/03/04 05:27:01;;;;;;;;;;;20.90;41.20;;;;;;500414;237;1152;-72
2021/03/04 05:29:02;;;;;;;;;;;20.80;41.30;;;;;;500251;237;1004;-72
2021/03/04 05:31:03;;;;;;;;;;;20.90;41.30;;;;;;500215;237;1089;-72
2021/03/04 05:33:05;;;;;;;;;;;20.80;41.10;;;;;;500242;237;949;-72
2021/03/04 05:35:06;;;;;;;;;;;21.00;41.10;;;;;;500161;237;954;-72
2021/03/04 05:37:07;;;;;;;;;;;21.00;40.90;;;;;;500149;237;1016;-72
2021/03/04 05:39:09;;;;;;;;;;;21.00;40.90;;;;;;500135;237;1198;-72
2021/03/04 05:41:10;;;;;;;;;;;21.00;40.90;;;;;;500047;237;1021;-72
2021/03/04 05:43:12;;;;;;;;;;;21.10;40.90;;;;;;500154;237;2164;-72
2021/03/04 05:45:13;;;;;;;;;;;21.00;40.90;;;;;;500077;237;1056;-72
2021/03/04 05:47:14;;;;;;;;;;;21.10;40.70;;;;;;500066;237;982;-72
2021/03/04 05:49:16;;;;;;;;;;;21.10;40.40;;;;;;500094;237;1062;-72
2021/03/04 05:51:17;;;;;;;;;;;21.10;40.80;;;;;;500031;237;1014;-72
2021/03/04 05:53:18;;;;;;;;;;;21.10;40.90;;;;;;500059;235;1275;-72
2021/03/04 05:55:20;;;;;;;;;;;21.10;40.80;;;;;;499993;237;1062;-72
2021/03/04 05:57:21;;;;;;;;;;;21.20;40.80;;;;;;500161;237;1188;-72
2021/03/04 05:59:22;;;;;;;;;;;21.10;40.80;;;;;;500026;237;990;-73
2021/03/04 06:01:24;;;;;;;;;;;21.10;40.80;;;;;;500044;237;1266;-73
2021/03/04 06:03:25;;;;;;;;;;;21.10;40.90;;;;;;500067;237;2140;-73
2021/03/04 06:05:26;;;;;;;;;;;21.10;40.90;;;;;;499939;237;974;-72
2021/03/04 06:07:27;;;;;;;;;;;21.20;40.80;;;;;;500293;237;1206;-72
2021/03/04 06:09:29;;;;;;;;;;;21.20;40.90;;;;;;500122;237;1174;-72
2021/03/04 06:11:30;;;;;;;;;;;21.20;40.70;;;;;;500182;237;1045;-72
2021/03/04 06:13:31;;;;;;;;;;;21.20;40.70;;;;;;500108;237;965;-72
2021/03/04 06:15:33;;;;;;;;;;;21.30;40.70;;;;;;500095;237;986;-72
2021/03/04 06:17:34;;;;;;;;;;;21.20;40.60;;;;;;500091;237;1024;-72
2021/03/04 06:19:35;;;;;;;;;;;21.20;40.30;;;;;;500139;237;975;-72
2021/03/04 06:21:36;;;;;;;;;;;21.20;40.80;;;;;;500028;237;1298;-72
2021/03/04 06:23:38;;;;;;;;;;;21.30;40.70;;;;;;499908;237;2175;-72
2021/03/04 06:25:39;;;;;;;;;;;21.30;40.70;;;;;;499883;237;1111;-72
2021/03/04 06:27:40;;;;;;;;;;;21.30;40.60;;;;;;499929;237;1098;-72
2021/03/04 06:29:42;;;;;;;;;;;21.30;40.60;;;;;;499889;237;978;-72
2021/03/04 06:31:43;;;;;;;;;;;21.40;40.60;;;;;;499806;237;1024;-72
2021/03/04 06:33:44;;;;;;;;;;;21.30;40.60;;;;;;499971;237;966;-73
2021/03/04 06:35:46;;;;;;;;;;;21.30;40.60;;;;;;499980;237;1101;-73
2021/03/04 06:37:47;;;;;;;;;;;21.40;40.50;;;;;;499915;237;1044;-73
2021/03/04 06:39:49;;;;;;;;;;;21.40;40.50;;;;;;499903;237;1148;-73
2021/03/04 06:41:50;;;;;;;;;;;21.40;40.40;;;;;;499865;237;1089;-73
2021/03/04 06:43:51;;;;;;;;;;;21.30;40.50;;;;;;499876;237;2135;-73
2021/03/04 06:45:53;;;;;;;;;;;21.50;40.10;;;;;;499848;237;1117;-72
2021/03/04 06:47:54;;;;;;;;;;;21.40;40.40;;;;;;499934;237;1153;-72
2021/03/04 06:49:55;;;;;;;;;;;21.50;40.50;;;;;;500013;237;965;-72
2021/03/04 06:51:56;;;;;;;;;;;21.50;40.50;;;;;;499937;237;1139;-72
2021/03/04 06:53:58;;;;;;;;;;;21.50;40.50;;;;;;499807;237;1160;-72
2021/03/04 06:56:01;;;;;;;;;;;21.50;40.50;;;;;;499752;237;1118;-73
2021/03/04 06:58:00;;;;;;;;;;;21.50;40.50;;;;;;499967;237;1292;-72
2021/03/04 07:00:02;;;;;;;;;;;21.50;40.50;;;;;;499647;237;1158;-72
2021/03/04 07:02:03;;;;;;;;;;;21.40;40.60;;;;;;499624;237;1015;-74
2021/03/04 07:04:04;;;;;;;;;;;21.50;40.40;;;;;;499820;237;2132;-73
2021/03/04 07:06:06;;;;;;;;;;;21.50;40.50;;;;;;499715;237;1184;-73
2021/03/04 07:08:07;;;;;;;;;;;21.40;40.60;;;;;;499768;237;1019;-73
2021/03/04 07:10:08;;;;;;;;;;;21.40;40.70;;;;;;499699;237;1102;-72
2021/03/04 07:12:10;;;;;;;;;;;21.50;40.60;;;;;;499494;237;1108;-72
2021/03/04 07:14:11;;;;;;;;;;;21.40;40.70;;;;;;499628;237;1044;-73
2021/03/04 07:16:12;;;;;;;;;;;21.50;40.50;;;;;;499657;237;1115;-73
2021/03/04 07:18:14;;;;;;;;;;;21.50;40.60;;;;;;499772;237;1096;-73
2021/03/04 07:20:17;;;;;;;;;;;21.60;40.50;;;;;;499610;237;1262;-73
2021/03/04 07:22:18;;;;;;;;;;;21.50;40.50;;;;;;499422;237;1078;-73
2021/03/04 07:24:19;;;;;;;;;;;21.50;40.50;;;;;;499652;237;2168;-72
2021/03/04 07:26:21;;;;;;;;;;;21.50;40.70;;;;;;499911;237;1141;-72
2021/03/04 07:28:23;;;;;;;;;;;21.50;40.60;;;;;;499964;237;1107;-73
2021/03/04 07:30:23;;;;;;;;;;;21.50;40.70;;;;;;499599;237;1362;-73
2021/03/04 07:32:24;;;;;;;;;;;21.50;40.60;;;;;;499599;237;1107;-73
2021/03/04 07:34:26;;;;;;;;;;;21.50;40.60;;;;;;499414;237;1048;-73
2021/03/04 07:36:27;;;;;;;;;;;21.50;40.40;;;;;;499406;237;1203;-73
2021/03/04 07:38:28;;;;;;;;;;;21.50;40.50;;;;;;499588;237;1010;-73
2021/03/04 07:40:30;;;;;;;;;;;21.50;40.40;;;;;;499645;237;1164;-73
2021/03/04 07:42:31;;;;;;;;;;;21.60;40.40;;;;;;499706;237;1089;-73
2021/03/04 07:44:32;;;;;;;;;;;21.60;40.40;;;;;;499599;237;2175;-73
2021/03/04 07:46:34;;;;;;;;;;;21.60;40.40;;;;;;499587;237;1280;-73
2021/03/04 07:48:35;;;;;;;;;;;21.60;40.40;;;;;;499456;237;974;-72
2021/03/04 07:50:36;;;;;;;;;;;21.60;40.50;;;;;;499409;237;1155;-72
2021/03/04 07:52:37;;;;;;;;;;;21.60;40.40;;;;;;499689;237;1036;-72
2021/03/04 07:54:39;;;;;;;;;;;21.60;40.50;;;;;;499427;237;1197;-72
2021/03/04 07:56:40;;;;;;;;;;;21.60;40.30;;;;;;499600;237;1169;-73
2021/03/04 07:58:41;;;;;;;;;;;21.70;40.20;;;;;;499572;237;1029;-72
2021/03/04 08:00:43;;;;;;;;;;;21.60;40.40;;;;;;499392;237;1198;-72
2021/03/04 08:02:44;;;;;;;;;;;21.70;40.20;;;;;;499773;237;1138;-72
2021/03/04 08:04:45;;;;;;;;;;;21.70;40.20;;;;;;499242;237;2179;-72
2021/03/04 08:06:46;;;;;;;;;;;21.80;40.10;;;;;;499428;237;1155;-73
2021/03/04 08:08:48;;;;;;;;;;;21.80;40.10;;;;;;499503;237;953;-73
2021/03/04 08:10:53;;;;;;;;;;;21.90;39.90;;;;;;499754;237;1262;-73
2021/03/04 08:12:51;;;;;;;;;;;21.80;40.10;;;;;;499337;237;1395;-73
2021/03/04 08:14:52;;;;;;;;;;;21.80;39.90;;;;;;499252;237;1010;-73
2021/03/04 08:16:54;;;;;;;;;;;21.80;40.10;;;;;;499355;237;1433;-72
2021/03/04 08:18:55;;;;;;;;;;;21.80;40.10;;;;;;499531;237;1059;-73
2021/03/04 08:20:56;;;;;;;;;;;21.70;39.80;;;;;;499401;237;1029;-73
2021/03/04 08:22:57;;;;;;;;;;;21.70;40.10;;;;;;499494;237;1036;-73
2021/03/04 08:24:59;;;;;;;;;;;21.50;40.30;;;;;;499302;237;2176;-73
2021/03/04 08:27:00;;;;;;;;;;;21.50;40.30;;;;;;499275;237;1186;-73
2021/03/04 08:29:01;;;;;;;;;;;21.40;40.50;;;;;;499404;237;1018;-73
2021/03/04 08:31:03;;;;;;;;;;;21.30;40.50;;;;;;499357;237;1153;-73
2021/03/04 08:33:04;;;;;;;;;;;21.20;40.80;;;;;;499437;237;1084;-73
2021/03/04 08:35:05;;;;;;;;;;;21.20;40.70;;;;;;499338;237;1068;-73
2021/03/04 08:37:06;;;;;;;;;;;21.20;40.60;;;;;;499367;237;1263;-73
2021/03/04 08:39:08;;;;;;;;;;;21.10;40.60;;;;;;499277;237;1056;-72
2021/03/04 08:41:09;;;;;;;;;;;21.00;40.50;;;;;;499283;237;1128;-73
2021/03/04 08:43:10;;;;;;;;;;;21.10;40.50;;;;;;499339;237;1168;-72
2021/03/04 08:45:12;;;;;;;;;;;21.00;40.60;;;;;;499377;237;2156;-73
2021/03/04 08:47:13;;;;;;;;;;;21.00;40.70;;;;;;499584;237;1175;-73
2021/03/04 08:49:14;;;;;;;;;;;21.00;40.70;;;;;;499473;237;1025;-73
2021/03/04 08:51:16;;;;;;;;;;;21.10;40.40;;;;;;499381;237;1101;-73
2021/03/04 08:53:17;;;;;;;;;;;21.10;40.50;;;;;;499596;237;1070;-73
2021/03/04 08:55:18;;;;;;;;;;;21.20;40.40;;;;;;499354;237;1159;-72
2021/03/04 08:57:19;;;;;;;;;;;21.30;40.20;;;;;;499390;237;1059;-73
2021/03/04 08:59:21;;;;;;;;;;;21.20;40.20;;;;;;499142;237;984;-73
2021/03/04 09:01:22;;;;;;;;;;;21.30;40.20;;;;;;499209;237;1126;-72
2021/03/04 09:03:23;;;;;;;;;;;21.20;39.70;;;;;;499260;237;1119;-73
2021/03/04 09:05:24;;;;;;;;;;;21.20;40.30;;;;;;499274;237;2191;-72
2021/03/04 09:07:26;;;;;;;;;;;21.20;40.40;;;;;;499438;237;1215;-73
2021/03/04 09:09:27;;;;;;;;;;;21.10;40.50;;;;;;499390;237;1011;-73
2021/03/04 09:11:29;;;;;;;;;;;21.10;40.60;;;;;;499364;237;1281;-73
2021/03/04 09:13:30;;;;;;;;;;;21.10;40.70;;;;;;499785;237;871;-72
2021/03/04 09:15:33;;;;;;;;;;;21.00;40.70;;;;;;499640;237;1043;-72
2021/03/04 09:17:34;;;;;;;;;;;21.00;40.80;;;;;;499846;237;1063;-72
2021/03/04 09:19:37;;;;;;;;;;;21.00;40.80;;;;;;499457;237;997;-73
2021/03/04 09:21:37;;;;;;;;;;;21.00;40.70;;;;;;499467;237;1392;-72
2021/03/04 09:23:38;;;;;;;;;;;21.00;40.70;;;;;;499544;237;2171;-72
2021/03/04 09:25:39;;;;;;;;;;;21.10;40.60;;;;;;499388;237;1292;-73
2021/03/04 09:27:41;;;;;;;;;;;21.10;40.80;;;;;;499476;237;1146;-72
2021/03/04 09:29:42;;;;;;;;;;;21.20;40.70;;;;;;499405;237;1028;-72
2021/03/04 09:31:43;;;;;;;;;;;21.10;40.70;;;;;;499262;237;1130;-72
2021/03/04 09:33:45;;;;;;;;;;;21.20;40.10;;;;;;499324;237;1202;-73
2021/03/04 09:35:46;;;;;;;;;;;21.10;40.60;;;;;;499270;237;1203;-72
2021/03/04 09:37:47;;;;;;;;;;;21.20;40.70;;;;;;499503;237;1077;-72
2021/03/04 09:39:48;;;;;;;;;;;21.10;40.90;;;;;;499380;237;1001;-72
2021/03/04 09:41:50;;;;;;;;;;;21.20;40.80;;;;;;499608;237;1324;-72
2021/03/04 09:43:51;;;;;;;;;;;21.20;40.80;;;;;;500292;237;2183;-73
2021/03/04 09:45:53;;;;;;;;;;;21.30;40.70;;;;;;499270;237;1200;-72
2021/03/04 09:47:53;;;;;;;;;;;21.20;40.60;;;;;;499764;237;1244;-73
2021/03/04 09:49:55;;;;;;;;;;;21.30;40.60;;;;;;500234;237;896;-73
2021/03/04 09:51:59;;;;;;;;;;;21.30;40.70;;;;;;499675;237;1146;-73
2021/03/04 09:54:00;;;;;;;;;;;21.30;40.60;;;;;;499354;237;1047;-73
2021/03/04 09:56:02;;;;;;;;;;;21.30;40.60;;;;;;499373;237;1244;-72
2021/03/04 09:58:03;;;;;;;;;;;21.20;40.70;;;;;;499460;237;1101;-74
2021/03/04 10:00:04;;;;;;;;;;;21.20;40.80;;;;;;499480;237;1011;-73
2021/03/04 10:02:05;;;;;;;;;;;21.20;40.70;;;;;;499218;237;1121;-73
2021/03/04 10:04:07;;;;;;;;;;;21.20;40.70;;;;;;499146;237;2339;-73
2021/03/04 10:06:08;;;;;;;;;;;21.20;40.60;;;;;;499172;237;1342;-73
2021/03/04 10:08:09;;;;;;;;;;;21.10;40.90;;;;;;499315;237;1277;-74
2021/03/04 10:10:11;;;;;;;;;;;21.10;40.90;;;;;;499246;237;1112;-72
2021/03/04 10:12:12;;;;;;;;;;;21.10;40.90;;;;;;499468;237;1174;-72
2021/03/04 10:14:13;;;;;;;;;;;21.10;41.00;;;;;;499389;237;1068;-73
2021/03/04 10:16:14;;;;;;;;;;;21.00;41.10;;;;;;499405;237;1331;-74
2021/03/04 10:18:16;;;;;;;;;;;21.00;41.10;;;;;;499712;237;1321;-74
2021/03/04 10:20:17;;;;;;;;;;;21.00;41.20;;;;;;499729;237;1031;-72
2021/03/04 10:22:18;;;;;;;;;;;21.10;41.10;;;;;;499392;237;1135;-73
2021/03/04 10:24:20;;;;;;;;;;;21.10;41.00;;;;;;499253;237;2192;-73
2021/03/04 10:26:24;;;;;;;;;;;21.10;40.90;;;;;;499252;237;1133;-72
2021/03/04 10:28:25;;;;;;;;;;;21.20;41.00;;;;;;499515;237;1069;-72
2021/03/04 10:30:27;;;;;;;;;;;21.20;41.00;;;;;;499293;237;999;-72
2021/03/04 10:32:28;;;;;;;;;;;21.20;41.00;;;;;;499296;237;1032;-72
2021/03/04 10:34:29;;;;;;;;;;;21.30;40.50;;;;;;499348;238;1054;-72
2021/03/04 10:36:30;;;;;;;;;;;21.20;40.80;;;;;;499431;237;1221;-73
2021/03/04 10:38:32;;;;;;;;;;;21.20;41.00;;;;;;499376;237;1070;-73
2021/03/04 10:40:33;;;;;;;;;;;21.10;41.00;;;;;;499293;237;986;-73
2021/03/04 10:42:34;;;;;;;;;;;21.20;40.90;;;;;;499369;237;1236;-72
2021/03/04 10:44:36;;;;;;;;;;;21.20;40.90;;;;;;499397;237;2172;-72
2021/03/04 10:46:37;;;;;;;;;;;21.30;41.00;;;;;;499521;237;1150;-73
2021/03/04 10:48:38;;;;;;;;;;;21.20;41.00;;;;;;499484;237;1094;-72
2021/03/04 10:50:40;;;;;;;;;;;21.30;41.00;;;;;;499398;237;1040;-72
2021/03/04 10:52:41;;;;;;;;;;;21.20;40.80;;;;;;499485;237;1068;-72
2021/03/04 10:54:42;;;;;;;;;;;21.20;41.00;;;;;;499358;237;1097;-72
2021/03/04 10:56:44;;;;;;;;;;;21.20;41.00;;;;;;499521;237;1179;-72
2021/03/04 10:58:45;;;;;;;;;;;21.20;41.10;;;;;;499316;237;1168;-72
2021/03/04 11:00:46;;;;;;;;;;;21.20;41.10;;;;;;499372;237;1454;-72
2021/03/04 11:02:47;;;;;;;;;;;21.20;41.10;;;;;;499510;237;1084;-73
2021/03/04 11:04:49;;;;;;;;;;;21.20;40.40;;;;;;499435;237;2172;-72
2021/03/04 11:06:50;;;;;;;;;;;21.10;40.80;;;;;;499446;237;1247;-72
2021/03/04 11:08:51;;;;;;;;;;;21.10;41.00;;;;;;499733;237;1051;-72
2021/03/04 11:10:53;;;;;;;;;;;21.10;41.10;;;;;;499378;237;1207;-72
2021/03/04 11:12:54;;;;;;;;;;;21.00;41.20;;;;;;499489;237;1179;-73
2021/03/04 11:14:55;;;;;;;;;;;21.10;41.10;;;;;;499545;237;1032;-73
2021/03/04 11:16:57;;;;;;;;;;;21.10;41.20;;;;;;499553;237;1128;-72
2021/03/04 11:18:58;;;;;;;;;;;21.20;40.80;;;;;;499498;237;1117;-72
2021/03/04 11:20:59;;;;;;;;;;;21.10;41.00;;;;;;499368;237;1305;-73
2021/03/04 11:23:00;;;;;;;;;;;21.20;41.00;;;;;;499397;237;1156;-73
2021/03/04 11:25:02;;;;;;;;;;;21.20;40.90;;;;;;499348;237;2176;-72
2021/03/04 11:27:03;;;;;;;;;;;21.10;40.90;;;;;;499490;237;1181;-72
2021/03/04 11:29:04;;;;;;;;;;;21.20;41.00;;;;;;499314;237;1030;-72
2021/03/04 11:31:06;;;;;;;;;;;21.10;41.00;;;;;;499221;237;1196;-72
2021/03/04 11:33:07;;;;;;;;;;;21.20;40.90;;;;;;499104;237;1174;-72
2021/03/04 11:35:08;;;;;;;;;;;21.20;41.10;;;;;;498962;237;1077;-72
2021/03/04 11:37:10;;;;;;;;;;;21.10;41.00;;;;;;499400;237;1067;-72
2021/03/04 11:39:11;;;;;;;;;;;21.20;41.00;;;;;;499672;237;1006;-72
2021/03/04 11:41:12;;;;;;;;;;;21.20;41.00;;;;;;499181;237;1256;-72
2021/03/04 11:43:13;;;;;;;;;;;21.10;41.00;;;;;;499387;237;1189;-72
2021/03/04 11:45:15;;;;;;;;;;;21.10;41.00;;;;;;499296;237;2195;-72
2021/03/04 11:47:16;;;;;;;;;;;21.20;40.90;;;;;;499279;237;1199;-72
2021/03/04 11:49:17;;;;;;;;;;;21.30;40.90;;;;;;499311;237;1030;-72
2021/03/04 11:51:19;;;;;;;;;;;21.20;41.00;;;;;;499248;237;1299;-72
2021/03/04 11:53:20;;;;;;;;;;;21.30;40.90;;;;;;499394;237;1166;-72
2021/03/04 11:55:21;;;;;;;;;;;21.10;40.40;;;;;;499133;237;1128;-73
2021/03/04 11:57:22;;;;;;;;;;;21.20;40.10;;;;;;499269;237;1191;-72
2021/03/04 11:59:24;;;;;;;;;;;21.20;39.50;;;;;;499211;237;1092;-73